Map

Track Data

SID SEASON NUMBER BASIN SUBBASIN NAME ISO_TIME NATURE LAT LON WMO_WIND WMO_PRES WMO_AGENCY TRACK_TYPE DIST2LAND LANDFALL IFLAG USA_AGENCY USA_ATCF_ID USA_LAT USA_LON USA_RECORD USA_STATUS USA_WIND USA_PRES USA_SSHS USA_R34_NE USA_R34_SE USA_R34_SW USA_R34_NW USA_R50_NE USA_R50_SE USA_R50_SW USA_R50_NW USA_R64_NE USA_R64_SE USA_R64_SW USA_R64_NW USA_POCI USA_ROCI USA_RMW USA_EYE TOKYO_LAT TOKYO_LON TOKYO_GRADE TOKYO_WIND TOKYO_PRES TOKYO_R50_DIR TOKYO_R50_LONG TOKYO_R50_SHORT TOKYO_R30_DIR TOKYO_R30_LONG TOKYO_R30_SHORT TOKYO_LAND CMA_LAT CMA_LON CMA_CAT CMA_WIND CMA_PRES HKO_LAT HKO_LON HKO_CAT HKO_WIND HKO_PRES NEWDELHI_LAT NEWDELHI_LON NEWDELHI_GRADE NEWDELHI_WIND NEWDELHI_PRES NEWDELHI_CI NEWDELHI_DP NEWDELHI_POCI REUNION_LAT REUNION_LON REUNION_TYPE REUNION_WIND REUNION_PRES REUNION_TNUM REUNION_CI REUNION_RMW REUNION_R34_NE REUNION_R34_SE REUNION_R34_SW REUNION_R34_NW REUNION_R50_NE REUNION_R50_SE REUNION_R50_SW REUNION_R50_NW REUNION_R64_NE REUNION_R64_SE REUNION_R64_SW REUNION_R64_NW BOM_LAT BOM_LON BOM_TYPE BOM_WIND BOM_PRES BOM_TNUM BOM_CI BOM_RMW BOM_R34_NE BOM_R34_SE BOM_R34_SW BOM_R34_NW BOM_R50_NE BOM_R50_SE BOM_R50_SW BOM_R50_NW BOM_R64_NE BOM_R64_SE BOM_R64_SW BOM_R64_NW BOM_ROCI BOM_POCI BOM_EYE BOM_POS_METHOD BOM_PRES_METHOD NADI_LAT NADI_LON NADI_CAT NADI_WIND NADI_PRES WELLINGTON_LAT WELLINGTON_LON WELLINGTON_WIND WELLINGTON_PRES DS824_LAT DS824_LON DS824_STAGE DS824_WIND DS824_PRES TD9636_LAT TD9636_LON TD9636_STAGE TD9636_WIND TD9636_PRES TD9635_LAT TD9635_LON TD9635_WIND TD9635_PRES TD9635_ROCI NEUMANN_LAT NEUMANN_LON NEUMANN_CLASS NEUMANN_WIND NEUMANN_PRES MLC_LAT MLC_LON MLC_CLASS MLC_WIND MLC_PRES USA_GUST BOM_GUST BOM_GUST_PER REUNION_GUST REUNION_GUST_PER USA_SEAHGT USA_SEARAD_NE USA_SEARAD_SE USA_SEARAD_SW USA_SEARAD_NW STORM_SPEED STORM_DIR
1976178N16257 1976 68 EP MM BONNY 1976-06-25 18:00:00 NR 16.0000 -103.000 main 225 222 __________O___ -1 16.0000 -103.000 1 30 2 80
1976178N16257 1976 68 EP MM BONNY 1976-06-25 21:00:00 NR 16.0142 -102.922 main 222 222 __________P___ -1 16.0142 -102.922 1 30 0 0
1976178N16257 1976 68 EP MM BONNY 1976-06-26 00:00:00 TS 16.0000 -103.000 30 hurdat_epa main 225 225 O________OO___ hurdat_epa EP021976 16.0000 -103.000 TD 30 -1 16.0000 -103.000 TC 30 16.0000 -103.000 1 30 6 259
1976178N16257 1976 68 EP MM BONNY 1976-06-26 03:00:00 TS 15.9051 -103.483 main 253 253 P________PP___ EP021976 15.8877 -103.553 TD 30 -1 15.8877 -103.553 TC 30 15.9399 -103.344 1 33 10 260
1976178N16257 1976 68 EP MM BONNY 1976-06-26 06:00:00 TS 15.8152 -104.046 30 hurdat_epa main 281 281 O________OP___ hurdat_epa EP021976 15.8000 -104.100 TD 30 -1 15.8000 -104.100 TC 30 15.8608 -103.884 1 37 11 263
1976178N16257 1976 68 EP MM BONNY 1976-06-26 09:00:00 TS 15.7702 -104.605 main 303 303 P________PP___ EP021976 15.7625 -104.630 TD 37 0 15.7625 -104.630 TC 37 15.8010 -104.507 1 41 10 269
1976178N16257 1976 68 EP MM BONNY 1976-06-26 12:00:00 TS 15.8000 -105.100 45 hurdat_epa main 327 327 O________OO___ hurdat_epa EP021976 15.8000 -105.100 TS 45 0 15.8000 -105.100 TC 45 15.8000 -105.100 2 45 8 280
1976178N16257 1976 68 EP MM BONNY 1976-06-26 15:00:00 TS 15.9192 -105.466 main 342 333 P________PP___ EP021976 15.9198 -105.472 TS 45 0 15.9198 -105.472 TC 45 15.9169 -105.439 2 47 7 294
1976178N16257 1976 68 EP MM BONNY 1976-06-26 18:00:00 TS 16.0990 -105.788 45 hurdat_epa main 346 346 O________OP___ hurdat_epa EP021976 16.1000 -105.800 TS 45 0 16.1000 -105.800 TC 45 16.0952 -105.740 2 50 7 302
1976178N16257 1976 68 EP MM BONNY 1976-06-26 21:00:00 TS 16.2999 -106.092 main 352 346 P________PP___ EP021976 16.2996 -106.098 TS 50 0 16.2996 -106.098 TC 50 16.3010 -106.071 2 52 8 300
1976178N16257 1976 68 EP MM BONNY 1976-06-27 00:00:00 TS 16.5000 -106.500 55 hurdat_epa main 351 351 O________OO___ hurdat_epa EP021976 16.5000 -106.500 TS 55 0 16.5000 -106.500 TC 55 16.5000 -106.500 2 55 11 290
1976178N16257 1976 68 EP MM BONNY 1976-06-27 03:00:00 TS 16.6619 -107.141 main 370 370 P________PP___ EP021976 16.6651 -107.140 TS 60 0 16.6651 -107.140 TC 60 16.6489 -107.145 2 57 14 282
1976178N16257 1976 68 EP MM BONNY 1976-06-27 06:00:00 TS 16.7964 -107.898 65 hurdat_epa main 422 422 O________OP___ hurdat_epa EP021976 16.8000 -107.900 HU 65 1 16.8000 -107.900 TC 65 16.7819 -107.890 2 60 15 279
1976178N16257 1976 68 EP MM BONNY 1976-06-27 09:00:00 TS 16.9058 -108.671 main 476 476 P________PP___ EP021976 16.9076 -108.673 HU 65 1 16.9076 -108.673 TC 65 16.8988 -108.664 2 62 15 278
1976178N16257 1976 68 EP MM BONNY 1976-06-27 12:00:00 TS 17.0000 -109.400 65 987 hurdat_epa main 527 527 O________OO___ hurdat_epa EP021976 17.0000 -109.400 HU 65 987 1 17.0000 -109.400 TC 65 987 17.0000 -109.400 4 65 13 279
1976178N16257 1976 68 EP MM BONNY 1976-06-27 15:00:00 TS 17.1083 -109.976 main 574 574 P________PP___ EP021976 17.1146 -109.980 HU 65 1 17.1146 -109.980 TC 65 17.0832 -109.960 4 63 11 280
1976178N16257 1976 68 EP MM BONNY 1976-06-27 18:00:00 TS 17.1909 -110.496 65 hurdat_epa main 612 612 O________OP___ hurdat_epa EP021976 17.2000 -110.500 HU 65 1 17.2000 -110.500 TC 65 17.1546 -110.479 4 62 10 275
1976178N16257 1976 68 EP MM BONNY 1976-06-27 21:00:00 TS 17.1922 -111.000 main 646 646 P________PP___ EP021976 17.1843 -110.998 HU 62 0 17.1843 -110.998 TC 62 17.2237 -111.007 4 61 11 272
1976178N16257 1976 68 EP MM BONNY 1976-06-28 00:00:00 TS 17.2200 -111.600 60 hurdat_epa main 659 653 O________OO___ hurdat_epa EP021976 17.2000 -111.600 TS 60 0 17.2000 -111.600 TC 60 17.3000 -111.600 2 60 14 279
1976178N16257 1976 68 EP MM BONNY 1976-06-28 03:00:00 TS 17.4090 -112.468 main 668 666 P________PP___ EP021976 17.3931 -112.477 TS 57 0 17.3931 -112.477 TC 57 17.4725 -112.432 2 52 17 283
1976178N16257 1976 68 EP MM BONNY 1976-06-28 06:00:00 TS 17.6077 -113.384 55 hurdat_epa main 690 690 O________OP___ hurdat_epa EP021976 17.6000 -113.400 TS 55 0 17.6000 -113.400 TC 55 17.6387 -113.318 2 45 17 281
1976178N16257 1976 68 EP MM BONNY 1976-06-28 09:00:00 TS 17.7330 -114.199 main 727 727 P________PP___ EP021976 17.7325 -114.212 TS 42 0 17.7325 -114.212 TC 42 17.7351 -114.145 2 37 14 274
1976178N16257 1976 68 EP MM BONNY 1976-06-28 12:00:00 TS 17.7000 -114.800 30 hurdat_epa main 767 767 O________OO___ hurdat_epa EP021976 17.7000 -114.800 TD 30 -1 17.7000 -114.800 TC 30 17.7000 -114.800 1 30 9 249
1976178N16257 1976 68 EP MM BONNY 1976-06-28 15:00:00 TS 17.4166 -115.045 main 806 806 P________PP___ EP021976 17.4171 -115.032 TD 30 -1 17.4171 -115.032 TC 30 17.4146 -115.097 1 30 8 204
1976178N16257 1976 68 EP MM BONNY 1976-06-28 18:00:00 TS 17.0015 -115.124 30 hurdat_epa main 848 848 O________OP___ hurdat_epa EP021976 17.0000 -115.100 TD 30 -1 17.0000 -115.100 TC 30 17.0073 -115.220 1 30 9 191
1976178N16257 1976 68 EP MM BONNY 1976-06-28 21:00:00 TS 16.5642 -115.227 main 890 890 P________PP___ EP021976 16.5624 -115.212 TD 30 -1 16.5624 -115.212 TC 30 16.5715 -115.284 1 30 8 198
1976178N16257 1976 68 EP MM BONNY 1976-06-29 00:00:00 TS 16.2000 -115.400 30 hurdat_epa main 938 938 O________OO___ hurdat_epa EP021976 16.2000 -115.400 TD 30 -1 16.2000 -115.400 TC 30 16.2000 -115.400 1 30 7 223
1976178N16257 1976 68 EP MM BONNY 1976-06-29 03:00:00 TS 16.0368 -115.741 main 975 975 P________PP___ EP021976 16.0551 -115.762 TD 30 -1 16.0551 -115.762 TC 30 15.9636 -115.656 1 28 8 253
1976178N16257 1976 68 EP MM BONNY 1976-06-29 06:00:00 TS 15.9755 -116.174 30 hurdat_epa main 1008 1008 O________OP___ hurdat_epa EP021976 16.0000 -116.200 TD 30 -1 16.0000 -116.200 TC 30 15.8447 -116.035 1 27 9 258
1976178N16257 1976 68 EP MM BONNY 1976-06-29 09:00:00 TS 15.8494 -116.629 main 1053 1053 P________PP___ EP021976 15.8551 -116.645 TD 27 -1 15.8551 -116.645 TC 27 15.8033 -116.497 1 26 8 258
1976178N16257 1976 68 EP MM BONNY 1976-06-29 12:00:00 TS 15.8000 -117.000 25 hurdat_epa main 1081 1080 O________OO___ hurdat_epa EP021976 15.8000 -117.000 TD 25 -1 15.8000 -117.000 TC 25 15.8000 -117.000 6 25 5 280
1976178N16257 1976 68 EP MM BONNY 1976-06-29 15:00:00 TS 15.9399 -117.160 main 1087 1062 P________P____ EP021976 15.9399 -117.160 TD 22 -1 15.9399 -117.160 TC 22 6 4 334
1976178N16257 1976 68 EP MM BONNY 1976-06-29 18:00:00 TS 16.2000 -117.200 20 hurdat_epa main 1062 O________O____ hurdat_epa EP021976 16.2000 -117.200 TD 20 -1 16.2000 -117.200 TC 20 6 5 352

About IBTrACS Database

This database is a web-friendly format of International Best Track Archive for Climate Stewardship (IBTrACS), a global best track data archive curated by NOAA dating back to 1842.

Updated: 2021-12-03